sensor_id;sensor_type;location;lat;lon;timestamp;pressure;altitude;pressure_sealevel;temperature;humidity
61109;BME280;46995;55.740;37.402;2023-06-24T00:01:01;98817.16;;;16.53;87.17
61109;BME280;46995;55.740;37.402;2023-06-24T00:03:27;98775.81;;;16.43;87.15
61109;BME280;46995;55.740;37.402;2023-06-24T00:05:53;98769.69;;;16.49;87.07
61109;BME280;46995;55.740;37.402;2023-06-24T00:08:22;98829.19;;;16.85;86.95
61109;BME280;46995;55.740;37.402;2023-06-24T00:10:48;98794.72;;;16.63;86.75
61109;BME280;46995;55.740;37.402;2023-06-24T00:13:16;98825.25;;;16.81;86.64
61109;BME280;46995;55.740;37.402;2023-06-24T00:15:42;98808.13;;;16.69;86.91
61109;BME280;46995;55.740;37.402;2023-06-24T00:18:09;98784.69;;;16.50;87.00
61109;BME280;46995;55.740;37.402;2023-06-24T00:20:36;98766.63;;;16.31;86.70
61109;BME280;46995;55.740;37.402;2023-06-24T00:23:02;98756.72;;;16.25;86.86
61109;BME280;46995;55.740;37.402;2023-06-24T00:25:29;98775.28;;;16.33;86.86
61109;BME280;46995;55.740;37.402;2023-06-24T00:27:55;98817.88;;;16.62;86.96
61109;BME280;46995;55.740;37.402;2023-06-24T00:30:22;98758.47;;;16.18;86.86
61109;BME280;46995;55.740;37.402;2023-06-24T00:32:48;98765.19;;;16.14;87.19
61109;BME280;46995;55.740;37.402;2023-06-24T00:35:14;98785.03;;;16.26;87.60
61109;BME280;46995;55.740;37.402;2023-06-24T00:37:41;98818.44;;;16.43;87.63
61109;BME280;46995;55.740;37.402;2023-06-24T00:40:09;98786.78;;;16.19;87.57
61109;BME280;46995;55.740;37.402;2023-06-24T00:42:37;98759.06;;;15.98;87.60
61109;BME280;46995;55.740;37.402;2023-06-24T00:45:04;98772.91;;;16.08;87.66
61109;BME280;46995;55.740;37.402;2023-06-24T00:47:31;98761.72;;;15.98;87.70
61109;BME280;46995;55.740;37.402;2023-06-24T00:49:59;98767.97;;;16.05;87.68
61109;BME280;46995;55.740;37.402;2023-06-24T00:52:25;98767.06;;;15.98;87.82
61109;BME280;46995;55.740;37.402;2023-06-24T00:54:53;98805.97;;;16.29;88.08
61109;BME280;46995;55.740;37.402;2023-06-24T00:57:21;98770.34;;;16.15;87.69
61109;BME280;46995;55.740;37.402;2023-06-24T00:59:51;98807.84;;;16.49;87.65
61109;BME280;46995;55.740;37.402;2023-06-24T01:02:22;98754.31;;;16.30;86.93
61109;BME280;46995;55.740;37.402;2023-06-24T01:04:54;98771.75;;;16.47;86.70
61109;BME280;46995;55.740;37.402;2023-06-24T01:07:21;98759.56;;;16.38;86.54
61109;BME280;46995;55.740;37.402;2023-06-24T01:09:46;98788.81;;;16.67;86.24
61109;BME280;46995;55.740;37.402;2023-06-24T01:12:12;98759.03;;;16.49;86.03
61109;BME280;46995;55.740;37.402;2023-06-24T01:14:39;98760.69;;;16.50;85.97
61109;BME280;46995;55.740;37.402;2023-06-24T01:17:24;98766.22;;;16.63;86.10
61109;BME280;46995;55.740;37.402;2023-06-24T01:25:47;98824.53;;;17.09;85.25
61109;BME280;46995;55.740;37.402;2023-06-24T01:28:30;98812.75;;;17.03;84.86
61109;BME280;46995;55.740;37.402;2023-06-24T01:34:14;98825.19;;;16.96;83.14
61109;BME280;46995;55.740;37.402;2023-06-24T01:36:45;98789.22;;;16.64;83.66
61109;BME280;46995;55.740;37.402;2023-06-24T01:39:16;98775.41;;;16.46;83.56
61109;BME280;46995;55.740;37.402;2023-06-24T01:41:48;98826.66;;;16.77;83.34
61109;BME280;46995;55.740;37.402;2023-06-24T01:44:18;98774.34;;;16.40;83.17
61109;BME280;46995;55.740;37.402;2023-06-24T01:46:46;98825.59;;;16.57;82.71
61109;BME280;46995;55.740;37.402;2023-06-24T01:49:15;98764.44;;;16.20;82.97
61109;BME280;46995;55.740;37.402;2023-06-24T01:51:44;98832.09;;;16.54;83.13
61109;BME280;46995;55.740;37.402;2023-06-24T01:54:16;98802.06;;;16.46;82.64
61109;BME280;46995;55.740;37.402;2023-06-24T01:56:45;98774.81;;;16.29;82.33
61109;BME280;46995;55.740;37.402;2023-06-24T01:59:25;98783.91;;;16.35;81.50
61109;BME280;46995;55.740;37.402;2023-06-24T02:01:58;98806.03;;;16.35;81.82
61109;BME280;46995;55.740;37.402;2023-06-24T02:04:27;98789.09;;;16.22;81.63
61109;BME280;46995;55.740;37.402;2023-06-24T02:07:02;98782.09;;;16.21;82.21
61109;BME280;46995;55.740;37.402;2023-06-24T02:09:30;98792.47;;;16.16;82.02
61109;BME280;46995;55.740;37.402;2023-06-24T02:11:58;98781.56;;;16.10;81.91
61109;BME280;46995;55.740;37.402;2023-06-24T02:14:27;98769.53;;;16.00;81.74
61109;BME280;46995;55.740;37.402;2023-06-24T02:16:56;98829.91;;;16.43;81.77
61109;BME280;46995;55.740;37.402;2023-06-24T02:19:29;98834.72;;;16.48;81.78
61109;BME280;46995;55.740;37.402;2023-06-24T02:21:58;98790.81;;;16.15;81.10
61109;BME280;46995;55.740;37.402;2023-06-24T02:24:26;98788.81;;;16.17;81.25
61109;BME280;46995;55.740;37.402;2023-06-24T02:26:54;98837.13;;;16.43;81.13
61109;BME280;46995;55.740;37.402;2023-06-24T02:29:25;98846.19;;;16.48;80.61
61109;BME280;46995;55.740;37.402;2023-06-24T02:31:51;98806.34;;;16.26;81.07
61109;BME280;46995;55.740;37.402;2023-06-24T02:34:19;98836.84;;;16.38;80.57
61109;BME280;46995;55.740;37.402;2023-06-24T02:36:46;98820.47;;;16.41;80.76
61109;BME280;46995;55.740;37.402;2023-06-24T02:39:12;98731.06;;;15.88;80.50
61109;BME280;46995;55.740;37.402;2023-06-24T02:41:38;98813.75;;;16.45;80.71
61109;BME280;46995;55.740;37.402;2023-06-24T02:44:06;98801.16;;;16.39;80.33
61109;BME280;46995;55.740;37.402;2023-06-24T02:46:34;98812.75;;;16.46;80.47
61109;BME280;46995;55.740;37.402;2023-06-24T02:49:05;98806.31;;;16.40;80.45
61109;BME280;46995;55.740;37.402;2023-06-24T02:51:31;98793.28;;;16.31;80.31
61109;BME280;46995;55.740;37.402;2023-06-24T02:53:58;98780.44;;;16.20;80.33
61109;BME280;46995;55.740;37.402;2023-06-24T02:56:43;98821.56;;;16.46;80.50
61109;BME280;46995;55.740;37.402;2023-06-24T02:59:13;98801.94;;;16.33;80.07
61109;BME280;46995;55.740;37.402;2023-06-24T03:01:39;98815.53;;;16.38;80.60
61109;BME280;46995;55.740;37.402;2023-06-24T03:04:13;98768.59;;;16.07;80.71
61109;BME280;46995;55.740;37.402;2023-06-24T03:06:40;98833.06;;;16.47;80.84
61109;BME280;46995;55.740;37.402;2023-06-24T03:09:08;98815.25;;;16.33;80.71
61109;BME280;46995;55.740;37.402;2023-06-24T03:11:42;98793.19;;;16.24;80.50
61109;BME280;46995;55.740;37.402;2023-06-24T03:14:11;98815.53;;;16.38;80.56
61109;BME280;46995;55.740;37.402;2023-06-24T03:16:41;98810.53;;;16.35;80.51
61109;BME280;46995;55.740;37.402;2023-06-24T03:19:13;98799.34;;;16.25;80.04
61109;BME280;46995;55.740;37.402;2023-06-24T03:21:40;98799.28;;;16.33;79.85
61109;BME280;46995;55.740;37.402;2023-06-24T03:24:10;98819.19;;;16.37;80.10
61109;BME280;46995;55.740;37.402;2023-06-24T03:26:39;98799.34;;;16.25;80.16
61109;BME280;46995;55.740;37.402;2023-06-24T03:29:08;98811.47;;;16.42;79.84
61109;BME280;46995;55.740;37.402;2023-06-24T03:31:37;98789.97;;;16.29;79.67
61109;BME280;46995;55.740;37.402;2023-06-24T03:34:03;98799.16;;;16.41;79.83
61109;BME280;46995;55.740;37.402;2023-06-24T03:36:29;98783.06;;;16.34;79.31
61109;BME280;46995;55.740;37.402;2023-06-24T03:38:54;98805.75;;;16.45;79.17
61109;BME280;46995;55.740;37.402;2023-06-24T03:41:21;98793.81;;;16.41;78.91
61109;BME280;46995;55.740;37.402;2023-06-24T03:43:48;98832.13;;;16.69;78.45
61109;BME280;46995;55.740;37.402;2023-06-24T03:46:15;98798.00;;;16.50;78.86
61109;BME280;46995;55.740;37.402;2023-06-24T03:48:42;98816.56;;;16.58;78.24
61109;BME280;46995;55.740;37.402;2023-06-24T03:51:08;98817.94;;;16.54;78.65
61109;BME280;46995;55.740;37.402;2023-06-24T03:53:36;98829.72;;;16.60;78.90
61109;BME280;46995;55.740;37.402;2023-06-24T03:56:02;98806.50;;;16.39;78.85
61109;BME280;46995;55.740;37.402;2023-06-24T03:58:28;98825.06;;;16.47;78.63
61109;BME280;46995;55.740;37.402;2023-06-24T04:00:54;98845.09;;;16.43;79.03
61109;BME280;46995;55.740;37.402;2023-06-24T04:03:23;98801.09;;;16.18;79.53
61109;BME280;46995;55.740;37.402;2023-06-24T04:05:53;98813.69;;;16.24;79.44
61109;BME280;46995;55.740;37.402;2023-06-24T04:08:21;98854.63;;;16.52;79.30
61109;BME280;46995;55.740;37.402;2023-06-24T04:10:47;98818.28;;;16.30;79.01
61109;BME280;46995;55.740;37.402;2023-06-24T04:13:13;98863.25;;;16.54;79.37
61109;BME280;46995;55.740;37.402;2023-06-24T04:15:39;98824.00;;;16.27;78.95
61109;BME280;46995;55.740;37.402;2023-06-24T04:18:05;98827.38;;;16.21;78.98
61109;BME280;46995;55.740;37.402;2023-06-24T04:20:32;98861.09;;;16.43;78.84
61109;BME280;46995;55.740;37.402;2023-06-24T04:22:59;98827.09;;;16.30;78.84
61109;BME280;46995;55.740;37.402;2023-06-24T04:25:27;98834.78;;;16.40;78.29
61109;BME280;46995;55.740;37.402;2023-06-24T04:27:53;98821.75;;;16.45;77.49
61109;BME280;46995;55.740;37.402;2023-06-24T04:30:19;98819.06;;;16.45;77.45
61109;BME280;46995;55.740;37.402;2023-06-24T04:32:45;98879.13;;;16.91;76.83
61109;BME280;46995;55.740;37.402;2023-06-24T04:35:11;98863.25;;;16.83;76.71
61109;BME280;46995;55.740;37.402;2023-06-24T04:37:37;98879.38;;;16.97;76.41
61109;BME280;46995;55.740;37.402;2023-06-24T04:40:04;98834.00;;;16.75;76.23
61109;BME280;46995;55.740;37.402;2023-06-24T04:42:31;98864.53;;;16.87;76.28
61109;BME280;46995;55.740;37.402;2023-06-24T04:44:57;98851.41;;;16.71;76.13
61109;BME280;46995;55.740;37.402;2023-06-24T04:47:23;98878.16;;;16.78;76.28
61109;BME280;46995;55.740;37.402;2023-06-24T04:49:50;98855.56;;;16.59;76.24
61109;BME280;46995;55.740;37.402;2023-06-24T04:52:16;98872.03;;;16.63;76.36
61109;BME280;46995;55.740;37.402;2023-06-24T04:54:42;98864.56;;;16.58;76.45
61109;BME280;46995;55.740;37.402;2023-06-24T04:57:09;98853.72;;;16.45;76.57
61109;BME280;46995;55.740;37.402;2023-06-24T04:59:48;98895.56;;;16.74;76.75
61109;BME280;46995;55.740;37.402;2023-06-24T05:02:13;98875.31;;;16.50;76.56
61109;BME280;46995;55.740;37.402;2023-06-24T05:04:41;98877.97;;;16.50;77.07
61109;BME280;46995;55.740;37.402;2023-06-24T05:07:07;98845.09;;;16.43;76.88
61109;BME280;46995;55.740;37.402;2023-06-24T05:09:33;98834.78;;;16.40;76.65
61109;BME280;46995;55.740;37.402;2023-06-24T05:11:59;98851.16;;;16.66;76.71
61109;BME280;46995;55.740;37.402;2023-06-24T05:14:25;98852.06;;;16.73;76.43
61109;BME280;46995;55.740;37.402;2023-06-24T05:16:51;98857.91;;;16.83;75.88
61109;BME280;46995;55.740;37.402;2023-06-24T05:19:16;98844.81;;;16.67;75.65
61109;BME280;46995;55.740;37.402;2023-06-24T05:21:42;98847.91;;;16.71;76.53
61109;BME280;46995;55.740;37.402;2023-06-24T05:24:08;98852.88;;;16.74;75.76
61109;BME280;46995;55.740;37.402;2023-06-24T05:26:34;98855.81;;;16.79;75.57
61109;BME280;46995;55.740;37.402;2023-06-24T05:29:00;98855.81;;;16.79;75.58
61109;BME280;46995;55.740;37.402;2023-06-24T05:31:25;98841.41;;;16.73;75.29
61109;BME280;46995;55.740;37.402;2023-06-24T05:33:51;98790.16;;;16.42;75.67
61109;BME280;46995;55.740;37.402;2023-06-24T05:36:17;98873.66;;;16.78;75.84
61109;BME280;46995;55.740;37.402;2023-06-24T05:38:43;98843.72;;;16.62;75.98
61109;BME280;46995;55.740;37.402;2023-06-24T05:41:09;98846.47;;;16.68;76.00
61109;BME280;46995;55.740;37.402;2023-06-24T05:43:34;98902.53;;;17.11;75.60
61109;BME280;46995;55.740;37.402;2023-06-24T05:46:00;98863.88;;;16.85;75.57
61109;BME280;46995;55.740;37.402;2023-06-24T05:48:26;98874.19;;;17.10;75.27
61109;BME280;46995;55.740;37.402;2023-06-24T05:50:52;98853.63;;;17.04;74.65
61109;BME280;46995;55.740;37.402;2023-06-24T05:53:18;98855.72;;;17.08;74.55
61109;BME280;46995;55.740;37.402;2023-06-24T05:55:44;98839.63;;;17.02;74.01
61109;BME280;46995;55.740;37.402;2023-06-24T05:58:10;98871.78;;;17.15;74.44
61109;BME280;46995;55.740;37.402;2023-06-24T06:00:36;98911.84;;;17.36;74.39
61109;BME280;46995;55.740;37.402;2023-06-24T06:03:03;98866.81;;;17.12;74.33
61109;BME280;46995;55.740;37.402;2023-06-24T06:05:30;98875.34;;;17.22;74.14
61109;BME280;46995;55.740;37.402;2023-06-24T06:07:56;98908.25;;;17.50;74.52
61109;BME280;46995;55.740;37.402;2023-06-24T06:10:21;98861.19;;;17.21;73.92
61109;BME280;46995;55.740;37.402;2023-06-24T06:12:48;98884.41;;;17.27;73.77
61109;BME280;46995;55.740;37.402;2023-06-24T06:15:14;98892.06;;;17.30;74.21
61109;BME280;46995;55.740;37.402;2023-06-24T06:17:40;98892.81;;;17.24;74.16
61109;BME280;46995;55.740;37.402;2023-06-24T06:20:07;98924.03;;;17.45;74.48
61109;BME280;46995;55.740;37.402;2023-06-24T06:22:33;98887.56;;;17.31;74.28
61109;BME280;46995;55.740;37.402;2023-06-24T06:25:05;98935.13;;;17.63;73.99
61109;BME280;46995;55.740;37.402;2023-06-24T06:27:31;98915.25;;;17.51;73.97
61109;BME280;46995;55.740;37.402;2023-06-24T06:29:56;98918.00;;;17.36;73.84
61109;BME280;46995;55.740;37.402;2023-06-24T06:32:23;98898.56;;;17.21;74.04
61109;BME280;46995;55.740;37.402;2023-06-24T06:34:50;98919.59;;;17.31;74.60
61109;BME280;46995;55.740;37.402;2023-06-24T06:37:16;98942.72;;;17.45;75.03
61109;BME280;46995;55.740;37.402;2023-06-24T06:39:42;98920.94;;;17.42;74.81
61109;BME280;46995;55.740;37.402;2023-06-24T06:42:08;98927.34;;;17.47;74.36
61109;BME280;46995;55.740;37.402;2023-06-24T06:44:33;98935.22;;;17.55;74.57
61109;BME280;46995;55.740;37.402;2023-06-24T06:47:00;98890.22;;;17.31;74.21
61109;BME280;46995;55.740;37.402;2023-06-24T06:49:26;98931.00;;;17.61;74.20
61109;BME280;46995;55.740;37.402;2023-06-24T06:51:54;98933.09;;;17.65;74.18
61109;BME280;46995;55.740;37.402;2023-06-24T06:54:21;98942.75;;;17.66;74.22
61109;BME280;46995;55.740;37.402;2023-06-24T06:56:47;98932.97;;;17.73;73.89
61109;BME280;46995;55.740;37.402;2023-06-24T06:59:13;98924.56;;;17.76;73.73
61109;BME280;46995;55.740;37.402;2023-06-24T07:01:39;98932.56;;;17.76;73.58
61109;BME280;46995;55.740;37.402;2023-06-24T07:04:05;98909.16;;;17.57;74.14
61109;BME280;46995;55.740;37.402;2023-06-24T07:06:31;98925.66;;;17.61;73.95
61109;BME280;46995;55.740;37.402;2023-06-24T07:08:58;98939.69;;;17.69;73.64
61109;BME280;46995;55.740;37.402;2023-06-24T07:11:23;98936.50;;;17.59;73.98
61109;BME280;46995;55.740;37.402;2023-06-24T07:13:51;98880.06;;;17.20;73.92
61109;BME280;46995;55.740;37.402;2023-06-24T07:16:17;98888.31;;;17.25;73.77
61109;BME280;46995;55.740;37.402;2023-06-24T07:18:44;98897.75;;;17.27;73.71
61109;BME280;46995;55.740;37.402;2023-06-24T07:21:10;98885.38;;;17.20;73.99
61109;BME280;46995;55.740;37.402;2023-06-24T07:23:35;98924.78;;;17.39;73.61
61109;BME280;46995;55.740;37.402;2023-06-24T07:26:01;98909.53;;;17.33;73.52
61109;BME280;46995;55.740;37.402;2023-06-24T07:28:27;98924.44;;;17.42;73.85
61109;BME280;46995;55.740;37.402;2023-06-24T07:30:53;98907.75;;;17.40;73.81
61109;BME280;46995;55.740;37.402;2023-06-24T07:33:19;98931.16;;;17.59;73.15
61109;BME280;46995;55.740;37.402;2023-06-24T07:35:45;98897.59;;;17.50;72.99
61109;BME280;46995;55.740;37.402;2023-06-24T07:38:12;98922.41;;;17.65;72.43
61109;BME280;46995;55.740;37.402;2023-06-24T07:40:38;98928.13;;;17.62;72.88
61109;BME280;46995;55.740;37.402;2023-06-24T07:43:04;98961.75;;;17.78;73.29
61109;BME280;46995;55.740;37.402;2023-06-24T07:45:30;98947.44;;;17.64;73.47
61109;BME280;46995;55.740;37.402;2023-06-24T07:47:57;98936.03;;;17.56;73.56
61109;BME280;46995;55.740;37.402;2023-06-24T07:50:24;98947.69;;;17.69;72.64
61109;BME280;46995;55.740;37.402;2023-06-24T07:52:50;98916.44;;;17.49;73.04
61109;BME280;46995;55.740;37.402;2023-06-24T07:55:16;98971.38;;;17.72;72.86
61109;BME280;46995;55.740;37.402;2023-06-24T07:57:46;98977.13;;;17.76;73.18
61109;BME280;46995;55.740;37.402;2023-06-24T08:00:13;98976.56;;;17.81;73.17
61109;BME280;46995;55.740;37.402;2023-06-24T08:02:41;98973.28;;;17.78;72.90
61109;BME280;46995;55.740;37.402;2023-06-24T08:05:07;98975.97;;;17.85;72.77
61109;BME280;46995;55.740;37.402;2023-06-24T08:07:35;98917.69;;;17.46;72.95
61109;BME280;46995;55.740;37.402;2023-06-24T08:10:01;98975.03;;;17.93;72.64
61109;BME280;46995;55.740;37.402;2023-06-24T08:12:28;98934.66;;;17.60;72.31
61109;BME280;46995;55.740;37.402;2023-06-24T08:14:57;98921.34;;;17.45;72.88
61109;BME280;46995;55.740;37.402;2023-06-24T08:17:23;98944.63;;;17.51;72.89
61109;BME280;46995;55.740;37.402;2023-06-24T08:19:49;98977.88;;;17.63;73.28
61109;BME280;46995;55.740;37.402;2023-06-24T08:22:15;98950.91;;;17.44;73.64
61109;BME280;46995;55.740;37.402;2023-06-24T08:24:41;98948.44;;;17.42;73.77
61109;BME280;46995;55.740;37.402;2023-06-24T08:27:07;98947.38;;;17.36;73.85
61109;BME280;46995;55.740;37.402;2023-06-24T08:29:34;98993.22;;;17.61;74.01
61109;BME280;46995;55.740;37.402;2023-06-24T08:32:05;98950.88;;;17.37;74.08
61109;BME280;46995;55.740;37.402;2023-06-24T08:34:35;98990.38;;;17.48;74.00
61109;BME280;46995;55.740;37.402;2023-06-24T08:37:01;98996.38;;;17.50;74.03
61109;BME280;46995;55.740;37.402;2023-06-24T08:39:30;98958.19;;;17.14;74.34
61109;BME280;46995;55.740;37.402;2023-06-24T08:41:56;98990.66;;;17.32;74.39
61109;BME280;46995;55.740;37.402;2023-06-24T08:44:22;98979.41;;;17.22;74.38
61109;BME280;46995;55.740;37.402;2023-06-24T08:46:48;99004.91;;;17.24;74.64
61109;BME280;46995;55.740;37.402;2023-06-24T08:51:56;98976.25;;;17.33;74.09
61109;BME280;46995;55.740;37.402;2023-06-24T08:54:24;98966.72;;;17.24;73.94
61109;BME280;46995;55.740;37.402;2023-06-24T08:56:51;99021.84;;;17.67;74.09
61109;BME280;46995;55.740;37.402;2023-06-24T08:59:17;99021.94;;;17.74;73.34
61109;BME280;46995;55.740;37.402;2023-06-24T09:01:46;98971.34;;;17.51;73.58
61109;BME280;46995;55.740;37.402;2023-06-24T09:04:12;99018.72;;;17.85;73.08
61109;BME280;46995;55.740;37.402;2023-06-24T09:06:38;98999.53;;;17.75;72.94
61109;BME280;46995;55.740;37.402;2023-06-24T09:09:04;98981.97;;;17.66;73.25
61109;BME280;46995;55.740;37.402;2023-06-24T09:11:30;98946.53;;;17.57;72.95
61109;BME280;46995;55.740;37.402;2023-06-24T09:13:59;99020.72;;;17.98;73.22
61109;BME280;46995;55.740;37.402;2023-06-24T09:16:25;99034.63;;;18.14;72.83
61109;BME280;46995;55.740;37.402;2023-06-24T09:18:52;99012.44;;;17.93;72.50
61109;BME280;46995;55.740;37.402;2023-06-24T09:21:26;99016.97;;;17.92;73.11
61109;BME280;46995;55.740;37.402;2023-06-24T09:23:56;99032.59;;;17.95;73.30
61109;BME280;46995;55.740;37.402;2023-06-24T09:26:26;99028.22;;;17.88;73.61
61109;BME280;46995;55.740;37.402;2023-06-24T09:28:53;99007.97;;;17.57;73.46
61109;BME280;46995;55.740;37.402;2023-06-24T09:31:23;99029.22;;;17.65;73.32
61109;BME280;46995;55.740;37.402;2023-06-24T09:33:49;99056.22;;;17.92;72.97
61109;BME280;46995;55.740;37.402;2023-06-24T09:36:15;99013.94;;;17.59;73.36
61109;BME280;46995;55.740;37.402;2023-06-24T09:38:43;99015.59;;;17.60;73.13
61109;BME280;46995;55.740;37.402;2023-06-24T09:41:12;99053.66;;;17.84;73.15
61109;BME280;46995;55.740;37.402;2023-06-24T09:43:42;99047.41;;;17.76;73.42
61109;BME280;46995;55.740;37.402;2023-06-24T09:46:11;99031.34;;;17.55;73.68
61109;BME280;46995;55.740;37.402;2023-06-24T09:48:40;99017.28;;;17.47;73.87
61109;BME280;46995;55.740;37.402;2023-06-24T09:51:06;99058.50;;;17.73;73.97
61109;BME280;46995;55.740;37.402;2023-06-24T09:53:37;99032.06;;;17.64;73.29
61109;BME280;46995;55.740;37.402;2023-06-24T09:56:04;99031.16;;;17.57;73.05
61109;BME280;46995;55.740;37.402;2023-06-24T09:58:35;99058.25;;;17.90;73.23
61109;BME280;46995;55.740;37.402;2023-06-24T10:01:05;99021.72;;;17.75;72.20
61109;BME280;46995;55.740;37.402;2023-06-24T10:03:33;99072.63;;;18.10;72.15
61109;BME280;46995;55.740;37.402;2023-06-24T10:06:02;99044.81;;;17.83;72.32
61109;BME280;46995;55.740;37.402;2023-06-24T10:08:30;99033.31;;;17.83;72.01
61109;BME280;46995;55.740;37.402;2023-06-24T10:10:56;99097.44;;;18.46;71.53
61109;BME280;46995;55.740;37.402;2023-06-24T10:13:25;99053.66;;;18.26;71.31
61109;BME280;46995;55.740;37.402;2023-06-24T10:15:52;99086.59;;;18.33;71.30
61109;BME280;46995;55.740;37.402;2023-06-24T10:20:57;99053.16;;;17.95;71.63
61109;BME280;46995;55.740;37.402;2023-06-24T10:25:57;99077.41;;;17.93;72.38
61109;BME280;46995;55.740;37.402;2023-06-24T10:28:23;99067.38;;;17.81;72.73
61109;BME280;46995;55.740;37.402;2023-06-24T10:30:56;99083.56;;;17.94;72.94
61109;BME280;46995;55.740;37.402;2023-06-24T10:33:25;99059.13;;;17.97;72.58
61109;BME280;46995;55.740;37.402;2023-06-24T10:35:51;99064.97;;;18.07;72.17
61109;BME280;46995;55.740;37.402;2023-06-24T10:38:19;99008.03;;;17.85;72.17
61109;BME280;46995;55.740;37.402;2023-06-24T10:40:48;99096.88;;;18.30;72.24
61109;BME280;46995;55.740;37.402;2023-06-24T10:45:50;99104.19;;;18.00;73.01
61109;BME280;46995;55.740;37.402;2023-06-24T10:48:17;99100.09;;;17.83;73.33
61109;BME280;46995;55.740;37.402;2023-06-24T10:50:46;99081.81;;;17.65;73.40
61109;BME280;46995;55.740;37.402;2023-06-24T10:53:13;99125.88;;;18.11;73.12
61109;BME280;46995;55.740;37.402;2023-06-24T10:55:39;99125.44;;;18.08;72.98
61109;BME280;46995;55.740;37.402;2023-06-24T10:58:13;99131.16;;;18.05;73.52
61109;BME280;46995;55.740;37.402;2023-06-24T11:00:42;99080.44;;;17.69;73.24
61109;BME280;46995;55.740;37.402;2023-06-24T11:05:40;99110.91;;;17.60;73.67
61109;BME280;46995;55.740;37.402;2023-06-24T11:08:07;99093.88;;;17.46;73.97
61109;BME280;46995;55.740;37.402;2023-06-24T11:10:47;99110.09;;;17.59;74.18
61109;BME280;46995;55.740;37.402;2023-06-24T11:13:15;99074.34;;;17.60;73.49
61109;BME280;46995;55.740;37.402;2023-06-24T11:15:42;99139.31;;;18.39;72.41
61109;BME280;46995;55.740;37.402;2023-06-24T11:18:11;99138.28;;;18.83;71.14
61109;BME280;46995;55.740;37.402;2023-06-24T11:20:38;99109.81;;;19.03;69.89
61109;BME280;46995;55.740;37.402;2023-06-24T11:23:11;99078.88;;;19.35;68.45
61109;BME280;46995;55.740;37.402;2023-06-24T11:25:40;99066.84;;;19.59;67.75
61109;BME280;46995;55.740;37.402;2023-06-24T11:28:13;99058.59;;;19.54;66.70
61109;BME280;46995;55.740;37.402;2023-06-24T11:30:39;99104.38;;;19.65;67.92
61109;BME280;46995;55.740;37.402;2023-06-24T11:33:04;99093.34;;;19.40;68.15
61109;BME280;46995;55.740;37.402;2023-06-24T11:35:31;99136.34;;;19.67;68.45
61109;BME280;46995;55.740;37.402;2023-06-24T11:38:02;99102.00;;;19.08;68.81
61109;BME280;46995;55.740;37.402;2023-06-24T11:40:31;99139.56;;;19.21;68.86
61109;BME280;46995;55.740;37.402;2023-06-24T11:43:00;99107.50;;;19.00;68.45
61109;BME280;46995;55.740;37.402;2023-06-24T11:45:27;99106.13;;;19.04;69.11
61109;BME280;46995;55.740;37.402;2023-06-24T11:47:52;99141.63;;;19.19;69.06
61109;BME280;46995;55.740;37.402;2023-06-24T11:50:25;99148.53;;;19.07;68.88
61109;BME280;46995;55.740;37.402;2023-06-24T11:52:53;99134.84;;;18.89;68.73
61109;BME280;46995;55.740;37.402;2023-06-24T11:55:21;99157.09;;;18.96;69.38
61109;BME280;46995;55.740;37.402;2023-06-24T11:57:50;99123.25;;;18.82;69.35
61109;BME280;46995;55.740;37.402;2023-06-24T12:00:25;99111.38;;;18.91;68.36
61109;BME280;46995;55.740;37.402;2023-06-24T12:03:00;99129.44;;;19.10;67.38
61109;BME280;46995;55.740;37.402;2023-06-24T12:05:32;99167.22;;;19.28;68.14
61109;BME280;46995;55.740;37.402;2023-06-24T12:08:04;99163.34;;;19.37;67.79
61109;BME280;46995;55.740;37.402;2023-06-24T12:10:31;99141.47;;;19.27;67.53
61109;BME280;46995;55.740;37.402;2023-06-24T12:13:02;99167.81;;;19.52;67.29
61109;BME280;46995;55.740;37.402;2023-06-24T12:15:28;99166.66;;;19.74;67.43
61109;BME280;46995;55.740;37.402;2023-06-24T12:17:55;99163.69;;;20.03;66.06
61109;BME280;46995;55.740;37.402;2023-06-24T12:20:21;99149.56;;;20.42;65.38
61109;BME280;46995;55.740;37.402;2023-06-24T12:22:48;99147.91;;;20.67;64.26
61109;BME280;46995;55.740;37.402;2023-06-24T12:25:16;99163.84;;;20.76;63.84
61109;BME280;46995;55.740;37.402;2023-06-24T12:27:44;99140.47;;;20.43;63.31
61109;BME280;46995;55.740;37.402;2023-06-24T12:30:11;99151.13;;;20.17;63.94
61109;BME280;46995;55.740;37.402;2023-06-24T12:32:37;99163.94;;;20.15;64.90
61109;BME280;46995;55.740;37.402;2023-06-24T12:35:03;99153.44;;;19.66;65.68
61109;BME280;46995;55.740;37.402;2023-06-24T12:37:32;99169.19;;;19.48;66.00
61109;BME280;46995;55.740;37.402;2023-06-24T12:39:59;99170.47;;;19.24;66.76
61109;BME280;46995;55.740;37.402;2023-06-24T12:42:25;99183.09;;;19.30;67.13
61109;BME280;46995;55.740;37.402;2023-06-24T12:44:51;99170.59;;;19.09;67.78
61109;BME280;46995;55.740;37.402;2023-06-24T12:47:17;99164.69;;;18.92;67.92
61109;BME280;46995;55.740;37.402;2023-06-24T12:49:44;99178.28;;;18.91;67.79
61109;BME280;46995;55.740;37.402;2023-06-24T12:52:09;99138.56;;;18.67;68.30
61109;BME280;46995;55.740;37.402;2023-06-24T12:54:36;99147.84;;;18.71;68.36
61109;BME280;46995;55.740;37.402;2023-06-24T12:57:02;99188.34;;;18.89;68.17
61109;BME280;46995;55.740;37.402;2023-06-24T12:59:27;99168.34;;;18.63;68.44
61109;BME280;46995;55.740;37.402;2023-06-24T13:01:53;99171.09;;;18.49;68.53
61109;BME280;46995;55.740;37.402;2023-06-24T13:04:19;99184.66;;;18.47;68.71
61109;BME280;46995;55.740;37.402;2023-06-24T13:06:48;99184.94;;;18.38;68.95
61109;BME280;46995;55.740;37.402;2023-06-24T13:09:14;99178.72;;;18.31;69.21
61109;BME280;46995;55.740;37.402;2023-06-24T13:11:40;99188.19;;;18.33;69.40
61109;BME280;46995;55.740;37.402;2023-06-24T13:14:07;99156.19;;;18.18;69.01